createdAt,value
2023-02-19T00:01:43.833Z,6.88
2023-02-19T00:04:15.131Z,7.10
2023-02-19T00:06:44.111Z,4.07
2023-02-19T00:09:12.181Z,4.50
2023-02-19T00:11:40.136Z,3.75
2023-02-19T00:14:08.726Z,6.32
2023-02-19T00:16:38.745Z,4.35
2023-02-19T00:19:08.823Z,6.82
2023-02-19T00:21:37.981Z,5.47
2023-02-19T00:24:09.214Z,3.88
2023-02-19T00:26:39.574Z,3.78
2023-02-19T00:29:07.318Z,7.30
2023-02-19T00:31:36.916Z,7.38
2023-02-19T00:34:07.192Z,6.70
2023-02-19T00:36:36.128Z,5.32
2023-02-19T00:39:05.757Z,6.53
2023-02-19T00:41:34.013Z,4.50
2023-02-19T00:44:03.102Z,7.80
2023-02-19T00:46:32.205Z,6.60
2023-02-19T00:49:00.669Z,8.07
2023-02-19T00:51:30.818Z,6.72
2023-02-19T00:53:59.386Z,3.95
2023-02-19T00:56:28.846Z,4.43
2023-02-19T00:59:00.068Z,5.00
2023-02-19T01:01:27.922Z,3.28
2023-02-19T01:03:55.848Z,6.55
2023-02-19T01:06:23.612Z,5.25
2023-02-19T01:08:51.963Z,4.95
2023-02-19T01:11:20.377Z,6.05
2023-02-19T01:13:49.612Z,4.18
2023-02-19T01:16:19.302Z,7.38
2023-02-19T01:18:47.716Z,4.93
2023-02-19T01:21:18.171Z,5.55
2023-02-19T01:23:47.261Z,4.70
2023-02-19T01:26:16.813Z,4.97
2023-02-19T01:28:44.848Z,5.10
2023-02-19T01:31:16.332Z,5.82
2023-02-19T01:33:46.944Z,6.75
2023-02-19T01:36:15.698Z,3.30
2023-02-19T01:38:43.496Z,6.90
2023-02-19T01:41:13.829Z,7.00
2023-02-19T01:44:00.337Z,5.18
2023-02-19T01:46:30.678Z,4.53
2023-02-19T01:49:02.061Z,5.53
2023-02-19T01:51:33.410Z,5.53
2023-02-19T01:54:05.854Z,4.75
2023-02-19T01:56:35.583Z,7.72
2023-02-19T01:59:04.293Z,5.50
2023-02-19T02:01:33.785Z,6.38
2023-02-19T02:04:01.925Z,7.57
2023-02-19T02:06:32.454Z,4.07
2023-02-19T02:09:19.056Z,6.15
2023-02-19T02:11:49.752Z,6.53
2023-02-19T02:14:19.416Z,5.20
2023-02-19T02:16:57.125Z,5.25
2023-02-19T02:20:03.690Z,14.35
2023-02-19T02:22:38.226Z,5.05
2023-02-19T02:25:37.616Z,5.07
2023-02-19T02:28:23.385Z,5.00
2023-02-19T02:30:55.793Z,4.38
2023-02-19T02:33:32.982Z,5.10
2023-02-19T02:36:07.022Z,3.97
2023-02-19T02:38:39.795Z,5.50
2023-02-19T02:41:08.402Z,4.45
2023-02-19T02:43:36.778Z,3.47
2023-02-19T02:46:12.273Z,7.80
2023-02-19T02:48:44.687Z,4.18
2023-02-19T02:51:19.053Z,4.38
2023-02-19T02:54:15.319Z,4.50
2023-02-19T02:56:46.094Z,2.45
2023-02-19T02:59:19.678Z,3.28
2023-02-19T03:02:11.376Z,3.03
2023-02-19T03:05:06.359Z,3.17
2023-02-19T03:10:08.344Z,2.35
2023-02-19T03:12:57.591Z,3.42
2023-02-19T03:15:46.056Z,2.97
2023-02-19T03:18:35.225Z,2.42
2023-02-19T03:21:07.510Z,2.08
2023-02-19T03:23:56.832Z,2.25
2023-02-19T03:26:27.242Z,2.08
2023-02-19T03:29:15.053Z,2.42
2023-02-19T03:31:47.713Z,2.17
2023-02-19T03:34:20.631Z,2.45
2023-02-19T03:36:57.577Z,2.40
2023-02-19T03:39:25.683Z,1.35
2023-02-19T03:42:02.531Z,2.22
2023-02-19T03:44:42.493Z,2.13
2023-02-19T03:47:17.084Z,1.48
2023-02-19T03:52:26.190Z,1.70
2023-02-19T03:54:59.510Z,1.50
2023-02-19T03:57:38.480Z,1.98
2023-02-19T04:00:12.438Z,0.95
2023-02-19T04:02:44.777Z,0.95
2023-02-19T04:05:17.834Z,1.10
2023-02-19T04:07:50.287Z,1.70
2023-02-19T04:10:22.814Z,1.77
2023-02-19T04:12:59.002Z,1.60
2023-02-19T04:15:30.462Z,1.98
2023-02-19T04:18:01.602Z,1.95
2023-02-19T04:20:35.218Z,2.00
2023-02-19T04:23:03.435Z,2.17
2023-02-19T04:25:33.244Z,2.05
2023-02-19T04:28:01.348Z,1.23
2023-02-19T04:30:29.308Z,2.60
2023-02-19T04:32:57.168Z,1.80
2023-02-19T04:35:24.917Z,1.92
2023-02-19T04:37:54.053Z,1.83
2023-02-19T04:40:21.782Z,1.85
2023-02-19T04:42:51.825Z,2.45
2023-02-19T04:45:19.533Z,1.88
2023-02-19T04:47:47.315Z,1.73
2023-02-19T04:50:15.363Z,1.70
2023-02-19T04:52:43.200Z,2.20
2023-02-19T04:55:12.472Z,1.80
2023-02-19T04:57:40.196Z,1.52
2023-02-19T05:00:09.646Z,1.50
2023-02-19T05:02:37.406Z,1.30
2023-02-19T05:05:05.597Z,1.48
2023-02-19T05:07:34.068Z,1.23
2023-02-19T05:10:02.378Z,1.38
2023-02-19T05:12:32.506Z,1.00
2023-02-19T05:15:00.465Z,1.60
2023-02-19T05:17:28.214Z,1.17
2023-02-19T05:19:55.930Z,1.60
2023-02-19T05:22:23.654Z,0.95
2023-02-19T05:24:51.375Z,1.38
2023-02-19T05:27:19.098Z,0.70
2023-02-19T05:29:48.113Z,1.20
2023-02-19T05:32:15.971Z,0.80
2023-02-19T05:34:43.756Z,1.20
2023-02-19T05:37:11.497Z,0.90
2023-02-19T05:39:39.193Z,1.40
2023-02-19T05:42:06.973Z,1.23
2023-02-19T05:44:34.749Z,1.10
2023-02-19T05:47:03.853Z,1.30
2023-02-19T05:49:31.574Z,1.50
2023-02-19T05:51:59.297Z,1.73
2023-02-19T05:54:29.815Z,1.83
2023-02-19T05:56:57.809Z,1.77
2023-02-19T05:59:27.061Z,1.58
2023-02-19T06:01:55.953Z,1.17
2023-02-19T06:04:25.108Z,1.15
2023-02-19T06:06:52.902Z,1.00
2023-02-19T06:09:20.635Z,1.38
2023-02-19T06:11:48.341Z,2.20
2023-02-19T06:14:16.286Z,1.98
2023-02-19T06:16:44.031Z,1.70
2023-02-19T06:19:11.839Z,1.42
2023-02-19T06:21:41.453Z,1.60
2023-02-19T06:24:10.630Z,0.98
2023-02-19T06:26:39.418Z,1.55
2023-02-19T06:29:07.084Z,1.65
2023-02-19T06:31:34.914Z,1.90
2023-02-19T06:34:05.199Z,1.17
2023-02-19T06:36:33.300Z,1.30
2023-02-19T06:39:03.196Z,1.50
2023-02-19T06:41:31.034Z,2.15
2023-02-19T06:43:58.823Z,2.47
2023-02-19T06:46:26.885Z,2.83
2023-02-19T06:48:54.652Z,2.25
2023-02-19T06:51:27.184Z,2.28
2023-02-19T06:53:55.222Z,2.60
2023-02-19T06:56:27.442Z,1.80
2023-02-19T06:58:56.530Z,1.88
2023-02-19T07:01:24.918Z,1.92
2023-02-19T07:03:53.476Z,2.10
2023-02-19T07:06:21.999Z,1.92
2023-02-19T07:08:49.988Z,2.17
2023-02-19T07:11:18.621Z,2.45
2023-02-19T07:13:48.114Z,2.50
2023-02-19T07:16:20.590Z,1.35
2023-02-19T07:18:48.354Z,1.70
2023-02-19T07:21:17.008Z,1.58
2023-02-19T07:23:45.844Z,1.92
2023-02-19T07:26:15.203Z,2.88
2023-02-19T07:28:43.188Z,2.33
2023-02-19T07:31:13.333Z,2.75
2023-02-19T07:33:43.713Z,2.50
2023-02-19T07:36:13.291Z,2.55
2023-02-19T07:38:41.096Z,1.95
2023-02-19T07:41:09.021Z,2.22
2023-02-19T07:43:38.762Z,2.40
2023-02-19T07:46:08.321Z,2.35
2023-02-19T07:48:38.382Z,2.15
2023-02-19T07:51:07.771Z,2.80
2023-02-19T07:53:36.476Z,1.88
2023-02-19T07:56:07.350Z,1.52
2023-02-19T07:58:35.999Z,1.45
2023-02-19T08:01:12.042Z,1.98
2023-02-19T08:03:40.480Z,2.50
2023-02-19T08:06:11.086Z,2.45
2023-02-19T08:08:39.418Z,2.08
2023-02-19T08:11:25.428Z,2.70
2023-02-19T08:13:54.024Z,2.65
2023-02-19T08:16:36.799Z,2.63
2023-02-19T08:19:10.107Z,2.08
2023-02-19T08:21:39.240Z,2.80
2023-02-19T08:24:07.452Z,2.83
2023-02-19T08:26:35.618Z,2.30
2023-02-19T08:29:03.810Z,2.50
2023-02-19T08:31:31.617Z,2.75
2023-02-19T08:33:59.431Z,3.70
2023-02-19T08:36:28.831Z,2.38
2023-02-19T08:38:56.742Z,2.50
2023-02-19T08:41:24.505Z,2.55
2023-02-19T08:43:52.282Z,1.95
2023-02-19T08:46:20.287Z,2.50
2023-02-19T08:48:48.199Z,2.03
2023-02-19T08:51:16.021Z,2.70
2023-02-19T08:53:45.261Z,2.75
2023-02-19T08:56:15.530Z,2.55
2023-02-19T08:58:43.581Z,2.15
2023-02-19T09:01:13.037Z,2.15
2023-02-19T09:03:41.237Z,2.35
2023-02-19T09:06:09.624Z,2.20
2023-02-19T09:08:37.627Z,2.33
2023-02-19T09:11:07.095Z,2.20
2023-02-19T09:13:35.071Z,3.00
2023-02-19T09:16:04.354Z,2.85
2023-02-19T09:18:32.456Z,3.20
2023-02-19T09:21:02.145Z,2.47
2023-02-19T09:23:29.876Z,2.45
2023-02-19T09:26:00.972Z,2.70
2023-02-19T09:28:30.241Z,2.80
2023-02-19T09:30:58.006Z,2.88
2023-02-19T09:33:25.769Z,2.83
2023-02-19T09:35:53.528Z,2.55
2023-02-19T09:38:21.397Z,2.03
2023-02-19T09:40:49.698Z,2.63
2023-02-19T09:43:21.284Z,2.83
2023-02-19T09:45:55.638Z,1.63
2023-02-19T09:50:51.023Z,2.92
2023-02-19T09:53:26.175Z,1.95
2023-02-19T09:55:54.190Z,2.47
2023-02-19T09:58:29.912Z,2.30
2023-02-19T10:01:02.023Z,1.92
2023-02-19T10:03:35.746Z,2.00
2023-02-19T10:06:11.154Z,2.10
2023-02-19T10:08:41.258Z,1.80
2023-02-19T10:11:12.999Z,2.30
2023-02-19T10:13:45.219Z,2.38
2023-02-19T10:16:19.021Z,1.67
2023-02-19T10:18:47.719Z,1.77
2023-02-19T10:21:19.590Z,1.73
2023-02-19T10:23:50.163Z,1.30
2023-02-19T10:26:18.374Z,2.10
2023-02-19T10:28:46.623Z,1.75
2023-02-19T10:31:20.940Z,2.13
2023-02-19T10:36:27.516Z,2.55
2023-02-19T10:38:57.668Z,2.03
2023-02-19T10:41:27.427Z,2.45
2023-02-19T10:43:57.931Z,2.17
2023-02-19T10:46:29.721Z,2.30
2023-02-19T10:49:00.374Z,1.77
2023-02-19T10:51:33.924Z,2.17
2023-02-19T10:54:06.952Z,2.47
2023-02-19T10:56:35.161Z,2.78
2023-02-19T10:59:21.872Z,2.92
2023-02-19T11:01:58.742Z,2.75
2023-02-19T11:04:28.013Z,2.67
2023-02-19T11:06:57.374Z,3.65
2023-02-19T11:09:29.278Z,3.33
2023-02-19T11:11:59.367Z,3.53
2023-02-19T11:14:28.291Z,2.90
2023-02-19T11:16:59.526Z,2.35
2023-02-19T11:19:36.511Z,2.92
2023-02-19T11:22:20.934Z,2.42
2023-02-19T11:24:50.726Z,1.77
2023-02-19T11:27:20.877Z,2.55
2023-02-19T11:29:48.927Z,1.92
2023-02-19T11:32:27.728Z,2.60
2023-02-19T11:35:18.535Z,2.60
2023-02-19T11:37:57.981Z,3.05
2023-02-19T11:40:37.311Z,2.35
2023-02-19T11:43:17.271Z,2.72
2023-02-19T11:45:52.778Z,2.25
2023-02-19T11:48:34.005Z,2.53
2023-02-19T11:51:25.405Z,2.15
2023-02-19T11:54:04.939Z,1.77
2023-02-19T11:56:37.049Z,1.40
2023-02-19T11:59:06.466Z,1.60
2023-02-19T12:01:57.937Z,2.40
2023-02-19T12:05:10.473Z,2.03
2023-02-19T12:08:10.287Z,1.70
2023-02-19T12:10:53.291Z,2.20
2023-02-19T12:13:29.015Z,1.77
2023-02-19T12:16:18.717Z,1.65
2023-02-19T12:19:05.322Z,2.53
2023-02-19T12:22:01.206Z,2.10
2023-02-19T12:25:04.401Z,1.58
2023-02-19T12:27:45.139Z,2.15
2023-02-19T12:30:39.153Z,1.75
2023-02-19T12:33:31.048Z,1.92
2023-02-19T12:36:11.457Z,1.95
2023-02-19T12:38:44.681Z,1.55
2023-02-19T12:44:22.402Z,1.48
2023-02-19T12:46:54.406Z,1.42
2023-02-19T12:49:28.890Z,1.17
2023-02-19T12:54:31.248Z,1.98
2023-02-19T12:57:04.080Z,2.72
2023-02-19T12:59:38.030Z,1.63
2023-02-19T13:02:14.847Z,2.63
2023-02-19T13:04:48.546Z,1.88
2023-02-19T13:07:21.483Z,1.50
2023-02-19T13:09:52.939Z,1.92
2023-02-19T13:12:25.491Z,1.83
2023-02-19T13:14:58.960Z,1.98
2023-02-19T13:17:33.333Z,1.65
2023-02-19T13:22:57.197Z,1.70
2023-02-19T13:25:32.759Z,2.15
2023-02-19T13:28:12.760Z,1.95
2023-02-19T13:31:07.155Z,2.90
2023-02-19T13:33:44.234Z,2.08
2023-02-19T13:36:15.429Z,2.75
2023-02-19T13:38:45.818Z,3.33
2023-02-19T13:41:29.071Z,3.05
2023-02-19T13:44:03.302Z,3.78
2023-02-19T13:46:41.302Z,2.90
2023-02-19T13:49:45.569Z,2.95
2023-02-19T13:52:38.113Z,3.15
2023-02-19T13:55:44.134Z,2.88
2023-02-19T13:58:37.759Z,2.38
2023-02-19T14:01:07.138Z,3.00
2023-02-19T14:03:51.016Z,2.20
2023-02-19T14:06:18.966Z,1.87
2023-02-19T14:08:53.165Z,2.42
2023-02-19T14:11:59.669Z,2.45
2023-02-19T14:14:29.413Z,2.20
2023-02-19T14:17:07.482Z,2.10
2023-02-19T14:19:56.756Z,1.95
2023-02-19T14:23:02.470Z,2.35
2023-02-19T14:25:53.166Z,1.88
2023-02-19T14:28:30.056Z,1.88
2023-02-19T14:31:00.981Z,2.45
2023-02-19T14:33:31.525Z,2.05
2023-02-19T14:36:05.753Z,1.67
2023-02-19T14:38:38.072Z,2.22
2023-02-19T14:41:07.401Z,3.15
2023-02-19T14:43:36.608Z,1.60
2023-02-19T14:46:10.778Z,2.22
2023-02-19T14:48:43.780Z,1.80
2023-02-19T14:51:16.169Z,1.40
2023-02-19T14:53:46.482Z,1.02
2023-02-19T14:56:21.699Z,1.83
2023-02-19T14:59:07.056Z,1.60
2023-02-19T15:01:34.950Z,3.05
2023-02-19T15:04:02.772Z,2.83
2023-02-19T15:06:33.422Z,2.17
2023-02-19T15:09:05.008Z,2.85
2023-02-19T15:11:34.395Z,1.90
2023-02-19T15:14:04.965Z,2.63
2023-02-19T15:16:35.664Z,1.02
2023-02-19T15:19:07.862Z,3.00
2023-02-19T15:21:40.968Z,3.17
2023-02-19T15:24:09.040Z,2.38
2023-02-19T15:26:39.044Z,2.35
2023-02-19T15:29:12.117Z,2.67
2023-02-19T15:31:46.488Z,2.30
2023-02-19T15:36:49.055Z,2.45
2023-02-19T15:39:24.703Z,2.47
2023-02-19T15:41:58.493Z,2.53
2023-02-19T15:44:42.937Z,2.55
2023-02-19T15:47:20.230Z,2.40
2023-02-19T15:49:53.965Z,2.15
2023-02-19T15:52:29.664Z,2.55
2023-02-19T15:55:02.892Z,1.85
2023-02-19T15:57:36.305Z,2.40
2023-02-19T16:00:12.834Z,2.20
2023-02-19T16:02:45.626Z,2.38
2023-02-19T16:05:18.150Z,2.25
2023-02-19T16:07:47.387Z,1.88
2023-02-19T16:10:23.173Z,2.05
2023-02-19T16:12:59.476Z,1.23
2023-02-19T16:15:31.598Z,1.52
2023-02-19T16:18:00.470Z,2.70
2023-02-19T16:20:31.941Z,1.75
2023-02-19T16:23:10.890Z,1.98
2023-02-19T16:25:45.048Z,1.63
2023-02-19T16:28:24.015Z,2.72
2023-02-19T16:31:01.891Z,1.85
2023-02-19T16:33:37.701Z,1.70
2023-02-19T16:36:20.905Z,3.20
2023-02-19T16:39:23.956Z,2.63
2023-02-19T16:42:14.401Z,2.88
2023-02-19T16:44:46.372Z,3.17
2023-02-19T16:47:41.543Z,3.55
2023-02-19T16:50:15.407Z,3.53
2023-02-19T16:52:58.454Z,2.55
2023-02-19T16:55:34.758Z,2.83
2023-02-19T16:58:02.531Z,2.40
2023-02-19T17:00:33.973Z,2.75
2023-02-19T17:03:09.402Z,2.10
2023-02-19T17:05:39.711Z,2.38
2023-02-19T17:08:31.180Z,2.70
2023-02-19T17:11:00.918Z,2.60
2023-02-19T17:13:31.230Z,2.45
2023-02-19T17:16:13.194Z,2.75
2023-02-19T17:18:43.960Z,3.53
2023-02-19T17:21:16.412Z,2.58
2023-02-19T17:23:46.500Z,2.42
2023-02-19T17:26:17.442Z,1.92
2023-02-19T17:28:45.246Z,1.45
2023-02-19T17:31:16.682Z,2.05
2023-02-19T17:33:45.124Z,2.72
2023-02-19T17:36:22.920Z,3.75
2023-02-19T17:38:57.407Z,3.28
2023-02-19T17:43:58.409Z,1.67
2023-02-19T17:46:30.708Z,1.67
2023-02-19T17:48:58.560Z,2.78
2023-02-19T17:51:27.928Z,2.95
2023-02-19T17:53:55.607Z,2.15
2023-02-19T17:56:26.348Z,2.42
2023-02-19T17:58:56.707Z,2.58
2023-02-19T18:01:26.278Z,2.58
2023-02-19T18:03:54.151Z,3.38
2023-02-19T18:06:24.326Z,2.67
2023-02-19T18:08:54.254Z,2.92
2023-02-19T18:11:24.521Z,1.70
2023-02-19T18:13:52.988Z,2.80
2023-02-19T18:16:24.935Z,2.35
2023-02-19T18:18:52.751Z,2.88
2023-02-19T18:21:22.677Z,1.58
2023-02-19T18:23:50.416Z,2.08
2023-02-19T18:26:20.374Z,3.45
2023-02-19T18:28:48.096Z,1.80
2023-02-19T18:31:21.772Z,2.30
2023-02-19T18:33:50.960Z,2.50
2023-02-19T18:36:18.731Z,2.55
2023-02-19T18:38:48.020Z,1.98
2023-02-19T18:41:22.729Z,1.30
2023-02-19T18:43:50.464Z,2.45
2023-02-19T18:46:22.158Z,1.75
2023-02-19T18:48:54.052Z,2.28
2023-02-19T18:51:23.376Z,2.25
2023-02-19T18:53:51.472Z,1.30
2023-02-19T18:56:19.338Z,3.03
2023-02-19T18:58:49.231Z,2.38
2023-02-19T19:01:18.045Z,1.90
2023-02-19T19:03:48.998Z,2.47
2023-02-19T19:06:23.530Z,2.17
2023-02-19T19:08:54.112Z,2.00
2023-02-19T19:11:23.842Z,2.45
2023-02-19T19:13:54.659Z,3.08
2023-02-19T19:16:34.441Z,2.58
2023-02-19T19:19:03.816Z,1.50
2023-02-19T19:21:35.598Z,1.88
2023-02-19T19:24:10.092Z,1.70
2023-02-19T19:29:05.663Z,1.42
2023-02-19T19:31:37.068Z,2.20
2023-02-19T19:34:07.524Z,2.13
2023-02-19T19:36:38.183Z,3.08
2023-02-19T19:39:11.274Z,1.60
2023-02-19T19:41:43.122Z,2.13
2023-02-19T19:44:17.031Z,2.58
2023-02-19T19:46:47.615Z,2.03
2023-02-19T19:49:18.784Z,3.03
2023-02-19T19:51:58.703Z,2.40
2023-02-19T19:54:28.557Z,2.95
2023-02-19T19:56:59.314Z,2.17
2023-02-19T19:59:27.323Z,2.00
2023-02-19T20:01:57.809Z,3.75
2023-02-19T20:04:26.905Z,2.20
2023-02-19T20:06:56.070Z,2.80
2023-02-19T20:09:25.587Z,2.20
2023-02-19T20:11:54.513Z,2.80
2023-02-19T20:14:23.621Z,2.17
2023-02-19T20:16:51.372Z,1.63
2023-02-19T20:19:20.898Z,2.65
2023-02-19T20:21:50.368Z,1.40
2023-02-19T20:24:24.034Z,2.30
2023-02-19T20:26:52.368Z,2.63
2023-02-19T20:29:20.137Z,2.53
2023-02-19T20:31:51.635Z,1.50
2023-02-19T20:34:19.729Z,1.63
2023-02-19T20:36:49.173Z,2.38
2023-02-19T20:39:19.586Z,2.47
2023-02-19T20:41:48.179Z,1.48
2023-02-19T20:44:16.628Z,1.73
2023-02-19T20:46:45.112Z,2.65
2023-02-19T20:49:13.402Z,2.67
2023-02-19T20:51:45.460Z,2.67
2023-02-19T20:54:14.271Z,1.85
2023-02-19T20:56:46.525Z,3.15
2023-02-19T20:59:15.415Z,3.40
2023-02-19T21:01:43.478Z,1.67
2023-02-19T21:04:11.728Z,1.73
2023-02-19T21:06:40.651Z,2.47
2023-02-19T21:09:08.633Z,2.40
2023-02-19T21:11:36.928Z,1.92
2023-02-19T21:14:06.092Z,2.80
2023-02-19T21:16:34.143Z,2.63
2023-02-19T21:19:01.984Z,2.58
2023-02-19T21:21:31.473Z,2.42
2023-02-19T21:24:01.157Z,2.30
2023-02-19T21:26:36.741Z,2.88
2023-02-19T21:29:06.460Z,2.53
2023-02-19T21:31:39.621Z,2.67
2023-02-19T21:34:08.793Z,3.03
2023-02-19T21:36:37.183Z,3.08
2023-02-19T21:39:06.850Z,3.28
2023-02-19T21:41:34.697Z,2.58
2023-02-19T21:44:02.751Z,3.25
2023-02-19T21:46:32.899Z,2.50
2023-02-19T21:49:01.352Z,3.25
2023-02-19T21:51:31.353Z,1.15
2023-02-19T21:54:00.126Z,2.90
2023-02-19T21:56:29.622Z,2.90
2023-02-19T21:58:57.759Z,1.95
2023-02-19T22:01:28.528Z,2.33
2023-02-19T22:03:57.877Z,2.95
2023-02-19T22:06:29.188Z,2.40
2023-02-19T22:08:57.734Z,2.55
2023-02-19T22:11:25.756Z,1.83
2023-02-19T22:13:53.879Z,1.95
2023-02-19T22:16:22.235Z,2.28
2023-02-19T22:18:54.124Z,1.52
2023-02-19T22:21:25.153Z,2.42
2023-02-19T22:23:54.198Z,1.40
2023-02-19T22:26:23.761Z,1.95
2023-02-19T22:28:52.191Z,2.58
2023-02-19T22:31:21.557Z,1.58
2023-02-19T22:33:49.442Z,1.63
2023-02-19T22:36:19.083Z,2.00
2023-02-19T22:38:48.785Z,3.45
2023-02-19T22:41:17.075Z,2.72
2023-02-19T22:43:45.038Z,2.20
2023-02-19T22:46:17.417Z,2.42
2023-02-19T22:48:45.463Z,3.25
2023-02-19T22:51:14.041Z,3.75
2023-02-19T22:53:45.566Z,2.30
2023-02-19T22:56:16.363Z,2.25
2023-02-19T22:58:45.003Z,3.38
2023-02-19T23:01:15.887Z,2.97
2023-02-19T23:03:48.967Z,2.45
2023-02-19T23:06:18.278Z,2.65
2023-02-19T23:08:46.091Z,3.10
2023-02-19T23:11:21.993Z,2.15
2023-02-19T23:13:49.747Z,2.70
2023-02-19T23:16:17.863Z,2.53
2023-02-19T23:18:45.698Z,1.83
2023-02-19T23:21:14.025Z,1.45
2023-02-19T23:23:42.531Z,2.63
2023-02-19T23:26:10.537Z,2.53
2023-02-19T23:28:40.585Z,2.03
2023-02-19T23:31:08.721Z,2.65
2023-02-19T23:33:36.834Z,2.58
2023-02-19T23:36:05.067Z,3.35
2023-02-19T23:38:32.909Z,3.25
2023-02-19T23:41:01.074Z,3.03
2023-02-19T23:43:29.237Z,2.90
2023-02-19T23:45:58.558Z,2.17
2023-02-19T23:48:26.393Z,3.00
2023-02-19T23:50:54.279Z,2.10
2023-02-19T23:53:22.095Z,2.78
2023-02-19T23:55:49.859Z,1.55
2023-02-19T23:58:17.691Z,1.77
